Hua Shan, China
Current Conditions -  °F | °C
As of 2:00 PM on Sunday 23 Nov 2014 (Local Time) from ZLXY Reporting Station
Haze Haze  
Wind Chill: 50°   Ceiling: Unl
Heat Index: 50°   Visibility: 0.87mi
Dew Point: 43°   Wind: 2mph
Humidity: 76%   Direction: NA
Pressure: 30.24"   Gusts: NA
Location:  34.48°N, 110.08°E
Report Text: ZLXY 230600Z VRB01MPS 1400 R23R/1500N R23L/1600U BRFEW05010/06 Q1024 BECMG TL0650 1500
Loading
Personal Weather Stations






























Interactive Weather Map New forecast layout! Learn more

10-Day Weather Forecast

Advertisements
Track Severe Weather on mobile